Time;durP1;ratioP1;P1;durP2;ratioP2;P2;SDS_P1;SDS_P2;PMS_P1;PMS_P2;Temp;Humidity;BMP_temperature;BMP_pressure;BME280_temperature;BME280_humidity;BME280_pressure;Samples;Min_cycle;Max_cycle;Signal;HPM_P1;HPM_P2
2021/06/06 00:02:17;;;;;;;;;;;;;;;11.22;85.63;96355.97;3605321;39;19935;-55
2021/06/06 00:04:44;;;;;;;;;;;;;;;11.19;85.41;96353.03;3596538;39;19947;-61
2021/06/06 00:07:13;;;;;;;;;;;;;;;11.15;85.01;96365.13;3608942;39;20340;-54
2021/06/06 00:09:41;;;;;;;;;;;;;;;11.06;85.41;96362.16;3607833;39;19950;-55
2021/06/06 00:12:09;;;;;;;;;;;;;;;11.04;86.43;96366.88;3607077;39;19950;-56
2021/06/06 00:14:38;;;;;;;;;;;;;;;10.98;86.48;96365.22;3607909;39;19972;-55
2021/06/06 00:17:08;;;;;;;;;;;;;;;10.91;87.00;96374.13;3598831;39;20255;-61
2021/06/06 00:19:36;;;;;;;;;;;;;;;10.94;87.70;96364.13;3609787;39;19947;-56
2021/06/06 00:22:05;;;;;;;;;;;;;;;10.96;87.69;96370.75;3607340;39;19944;-55
2021/06/06 00:24:34;;;;;;;;;;;;;;;11.00;87.72;96366.59;3604505;39;20042;-56
2021/06/06 00:27:02;;;;;;;;;;;;;;;11.07;87.62;96358.47;3599181;39;19974;-55
2021/06/06 00:29:30;;;;;;;;;;;;;;;11.12;87.68;96363.00;3605232;39;19939;-55
2021/06/06 00:31:58;;;;;;;;;;;;;;;11.19;87.61;96368.88;3606717;39;20238;-55
2021/06/06 00:34:26;;;;;;;;;;;;;;;11.24;87.28;96363.66;3606968;39;19997;-55
2021/06/06 00:36:55;;;;;;;;;;;;;;;11.30;87.68;96367.16;3615867;39;20284;-55
2021/06/06 00:39:24;;;;;;;;;;;;;;;11.33;87.44;96366.63;3602851;39;19940;-55
2021/06/06 00:41:54;;;;;;;;;;;;;;;11.36;86.99;96364.31;3606032;39;19948;-54
2021/06/06 00:44:24;;;;;;;;;;;;;;;11.41;86.99;96366.22;3608458;39;19947;-54
2021/06/06 00:46:55;;;;;;;;;;;;;;;11.41;86.30;96360.94;3597338;39;19944;-54
2021/06/06 00:49:23;;;;;;;;;;;;;;;11.44;87.12;96362.25;3595443;39;19944;-53
2021/06/06 00:51:54;;;;;;;;;;;;;;;11.45;87.48;96361.22;3606316;39;20285;-53
2021/06/06 00:54:25;;;;;;;;;;;;;;;11.47;87.59;96365.19;3608429;39;19947;-53
2021/06/06 00:57:00;;;;;;;;;;;;;;;11.48;87.12;96366.00;3609799;39;19951;-55
2021/06/06 00:59:31;;;;;;;;;;;;;;;11.51;86.82;96361.03;3608623;39;19946;-54
2021/06/06 01:01:59;;;;;;;;;;;;;;;11.57;87.95;96361.88;3606947;39;20247;-53
2021/06/06 01:04:27;;;;;;;;;;;;;;;11.63;87.44;96362.69;3609620;39;20296;-53
2021/06/06 01:06:55;;;;;;;;;;;;;;;11.69;86.90;96361.72;3602905;39;19943;-54
2021/06/06 01:09:27;;;;;;;;;;;;;;;11.73;86.39;96357.50;3598288;39;20492;-54
2021/06/06 01:12:28;;;;;;;;;;;;;;;11.71;87.76;96354.31;3596676;39;19949;-54
2021/06/06 01:15:08;;;;;;;;;;;;;;;11.74;86.98;96358.31;3592091;39;20442;-54
2021/06/06 01:17:41;;;;;;;;;;;;;;;11.77;86.75;96363.06;3608617;39;19943;-54
2021/06/06 01:20:17;;;;;;;;;;;;;;;11.80;86.48;96362.56;3607014;39;19944;-53
2021/06/06 01:22:50;;;;;;;;;;;;;;;11.81;86.28;96361.53;3607677;39;19939;-53
2021/06/06 01:25:31;;;;;;;;;;;;;;;11.82;85.82;96366.56;3601915;39;19954;-54
2021/06/06 01:28:13;;;;;;;;;;;;;;;11.86;86.51;96366.88;3604323;39;20388;-54
2021/06/06 01:30:45;;;;;;;;;;;;;;;11.92;86.61;96357.91;3609203;39;21055;-54
2021/06/06 01:33:17;;;;;;;;;;;;;;;11.97;86.73;96365.91;3609123;39;19950;-55
2021/06/06 01:35:53;;;;;;;;;;;;;;;12.02;86.48;96364.34;3608022;39;19953;-54
2021/06/06 01:38:27;;;;;;;;;;;;;;;12.06;86.63;96363.59;3616978;39;19941;-54
2021/06/06 01:40:58;;;;;;;;;;;;;;;12.06;85.93;96354.88;3596282;39;20304;-54
2021/06/06 01:43:33;;;;;;;;;;;;;;;12.06;85.83;96357.50;3608925;39;19943;-56
2021/06/06 01:46:10;;;;;;;;;;;;;;;12.09;84.80;96364.94;3598264;39;19944;-54
2021/06/06 01:48:39;;;;;;;;;;;;;;;12.12;84.33;96359.16;3614492;39;19935;-54
2021/06/06 01:51:09;;;;;;;;;;;;;;;12.07;83.56;96349.31;3600011;39;19949;-54
2021/06/06 01:53:42;;;;;;;;;;;;;;;12.16;83.34;96362.88;3598947;39;19950;-54
2021/06/06 01:56:10;;;;;;;;;;;;;;;12.18;83.32;96358.13;3606028;39;19953;-54
2021/06/06 01:58:48;;;;;;;;;;;;;;;12.20;84.14;96356.03;3615028;39;19950;-54
2021/06/06 02:01:21;;;;;;;;;;;;;;;12.22;83.90;96358.41;3604722;39;19943;-54
2021/06/06 02:03:54;;;;;;;;;;;;;;;12.22;83.84;96356.56;3610528;39;20212;-54
2021/06/06 02:06:38;;;;;;;;;;;;;;;12.25;83.31;96363.97;3615285;39;19974;-54
2021/06/06 02:09:08;;;;;;;;;;;;;;;12.33;82.86;96365.34;3611723;39;19951;-54
2021/06/06 02:11:44;;;;;;;;;;;;;;;12.36;82.62;96358.78;3606206;39;19950;-53
2021/06/06 02:14:16;;;;;;;;;;;;;;;12.36;82.67;96364.06;3609734;39;20248;-56
2021/06/06 02:16:46;;;;;;;;;;;;;;;12.39;82.18;96367.00;3602996;39;19949;-54
2021/06/06 02:19:26;;;;;;;;;;;;;;;12.37;82.69;96365.66;3608950;39;19939;-53
2021/06/06 02:22:05;;;;;;;;;;;;;;;12.39;82.74;96368.81;3607295;39;19940;-54
2021/06/06 02:24:36;;;;;;;;;;;;;;;12.41;82.38;96372.00;3608737;39;19940;-54
2021/06/06 02:27:16;;;;;;;;;;;;;;;12.39;81.95;96374.94;3608167;39;20426;-54
2021/06/06 02:29:43;;;;;;;;;;;;;;;12.39;81.63;96374.13;3600095;39;19939;-54
2021/06/06 02:32:19;;;;;;;;;;;;;;;12.40;82.78;96368.59;3608363;39;19943;-54
2021/06/06 02:34:55;;;;;;;;;;;;;;;12.38;82.42;96369.88;3596764;39;19950;-54
2021/06/06 02:37:29;;;;;;;;;;;;;;;12.37;82.88;96368.31;3598782;39;19977;-54
2021/06/06 02:40:00;;;;;;;;;;;;;;;12.37;82.68;96371.75;3605047;39;19949;-54
2021/06/06 02:42:36;;;;;;;;;;;;;;;12.39;82.97;96368.81;3597975;39;19954;-54
2021/06/06 02:45:04;;;;;;;;;;;;;;;12.37;83.48;96369.09;3607245;39;19982;-57
2021/06/06 02:47:35;;;;;;;;;;;;;;;12.38;84.12;96367.22;3605799;39;19946;-54
2021/06/06 02:50:15;;;;;;;;;;;;;;;12.39;83.37;96374.13;3610491;39;19944;-54
2021/06/06 02:52:53;;;;;;;;;;;;;;;12.48;83.19;96371.78;3606695;39;19944;-54
2021/06/06 02:55:30;;;;;;;;;;;;;;;12.51;83.46;96377.38;3609394;39;19963;-54
2021/06/06 02:58:04;;;;;;;;;;;;;;;12.50;83.05;96378.41;3608869;39;19944;-54
2021/06/06 03:00:39;;;;;;;;;;;;;;;12.49;83.88;96376.03;3609537;39;19936;-54
2021/06/06 03:03:10;;;;;;;;;;;;;;;12.48;84.00;96383.19;3601366;39;19943;-55
2021/06/06 03:05:38;;;;;;;;;;;;;;;12.48;84.32;96385.84;3609703;39;20213;-55
2021/06/06 03:08:11;;;;;;;;;;;;;;;12.52;83.28;96384.25;3607714;39;19936;-54
2021/06/06 03:10:43;;;;;;;;;;;;;;;12.56;82.46;96385.34;3607901;39;19944;-54
2021/06/06 03:13:31;;;;;;;;;;;;;;;12.58;82.06;96379.78;3609267;39;19963;-54
2021/06/06 03:16:02;;;;;;;;;;;;;;;12.59;82.42;96382.19;3609330;39;20484;-54
2021/06/06 03:18:40;;;;;;;;;;;;;;;12.57;82.88;96386.94;3610027;39;19969;-54
2021/06/06 03:21:18;;;;;;;;;;;;;;;12.56;82.88;96385.34;3606958;39;20239;-54
2021/06/06 03:24:00;;;;;;;;;;;;;;;12.59;82.34;96384.03;3600500;39;19950;-54
2021/06/06 03:26:32;;;;;;;;;;;;;;;12.55;82.14;96388.25;3598272;39;19941;-54
2021/06/06 03:29:06;;;;;;;;;;;;;;;12.52;82.95;96389.53;3608486;39;19966;-54
2021/06/06 03:31:36;;;;;;;;;;;;;;;12.46;82.72;96385.28;3604075;39;19936;-54
2021/06/06 03:34:06;;;;;;;;;;;;;;;12.45;84.03;96394.28;3610057;39;19948;-55
2021/06/06 03:36:46;;;;;;;;;;;;;;;12.43;83.57;96391.09;3607190;39;19958;-54
2021/06/06 03:39:45;;;;;;;;;;;;;;;12.42;83.50;96394.78;3607939;39;19943;-55
2021/06/06 03:42:18;;;;;;;;;;;;;;;12.36;84.44;96387.88;3608291;39;19944;-54
2021/06/06 03:44:50;;;;;;;;;;;;;;;12.35;85.05;96394.22;3593794;39;19944;-54
2021/06/06 03:47:23;;;;;;;;;;;;;;;12.32;84.98;96392.84;3607128;39;19943;-55
2021/06/06 03:49:52;;;;;;;;;;;;;;;12.28;85.76;96395.22;3607432;39;20023;-54
2021/06/06 03:52:20;;;;;;;;;;;;;;;12.28;85.69;96389.94;3599211;39;19944;-54
2021/06/06 03:54:48;;;;;;;;;;;;;;;12.32;85.51;96394.72;3603679;39;19943;-54
2021/06/06 03:57:16;;;;;;;;;;;;;;;12.35;86.56;96394.22;3605070;39;19950;-54
2021/06/06 03:59:47;;;;;;;;;;;;;;;12.37;85.48;96392.13;3605524;39;20307;-54
2021/06/06 04:02:14;;;;;;;;;;;;;;;12.39;86.13;96400.56;3606152;39;19947;-56
2021/06/06 04:04:42;;;;;;;;;;;;;;;12.42;85.61;96402.72;3601754;39;19947;-54
2021/06/06 04:07:12;;;;;;;;;;;;;;;12.42;85.58;96400.06;3605580;39;19950;-54
2021/06/06 04:09:41;;;;;;;;;;;;;;;12.43;85.63;96399.81;3602561;39;19948;-54
2021/06/06 04:12:08;;;;;;;;;;;;;;;12.46;85.53;96406.47;3606186;39;19942;-55
2021/06/06 04:14:38;;;;;;;;;;;;;;;12.49;85.46;96403.31;3607364;39;19944;-55
2021/06/06 04:17:07;;;;;;;;;;;;;;;12.58;86.53;96403.59;3607320;39;19936;-55
2021/06/06 04:19:40;;;;;;;;;;;;;;;12.62;86.57;96402.03;3613249;39;19943;-54
2021/06/06 04:22:09;;;;;;;;;;;;;;;12.64;86.06;96407.88;3610643;39;20496;-54
2021/06/06 04:24:37;;;;;;;;;;;;;;;12.71;86.53;96407.66;3603604;39;19949;-60
2021/06/06 04:27:09;;;;;;;;;;;;;;;12.79;85.58;96407.16;3606346;39;19948;-54
2021/06/06 04:29:37;;;;;;;;;;;;;;;12.80;85.00;96410.63;3610153;39;20011;-54
2021/06/06 04:32:07;;;;;;;;;;;;;;;12.79;85.98;96407.16;3605418;39;19953;-55
2021/06/06 04:34:42;;;;;;;;;;;;;;;12.83;85.71;96405.59;3605214;39;19936;-54
2021/06/06 04:37:12;;;;;;;;;;;;;;;12.86;84.98;96405.06;3606644;39;19967;-60
2021/06/06 04:39:41;;;;;;;;;;;;;;;12.89;86.25;96407.19;3606666;39;19950;-60
2021/06/06 04:42:09;;;;;;;;;;;;;;;12.94;85.50;96406.41;3607576;39;20402;-60
2021/06/06 04:44:38;;;;;;;;;;;;;;;12.97;85.23;96411.22;3608871;39;21474;-61
2021/06/06 04:47:08;;;;;;;;;;;;;;;13.04;85.42;96408.31;3609513;39;20953;-60
2021/06/06 04:49:40;;;;;;;;;;;;;;;13.12;85.40;96410.47;3615323;39;19935;-60
2021/06/06 04:52:09;;;;;;;;;;;;;;;13.17;85.12;96405.19;3608783;39;19943;-61
2021/06/06 04:54:44;;;;;;;;;;;;;;;13.28;84.20;96410.53;3609123;39;19944;-60
2021/06/06 04:57:12;;;;;;;;;;;;;;;13.40;83.42;96418.28;3611510;39;19946;-60
2021/06/06 04:59:42;;;;;;;;;;;;;;;13.45;82.86;96415.63;3606080;39;19965;-61
2021/06/06 05:02:14;;;;;;;;;;;;;;;13.51;83.80;96418.03;3608617;39;19947;-60
2021/06/06 05:04:48;;;;;;;;;;;;;;;13.58;83.08;96419.66;3611068;39;19946;-64
2021/06/06 05:07:18;;;;;;;;;;;;;;;13.70;82.06;96422.84;3597386;39;19940;-61
2021/06/06 05:09:47;;;;;;;;;;;;;;;13.78;81.87;96414.38;3607736;39;20059;-63
2021/06/06 05:12:17;;;;;;;;;;;;;;;13.91;82.58;96425.53;3608284;39;20223;-64
2021/06/06 05:14:45;;;;;;;;;;;;;;;14.01;81.73;96430.03;3610661;39;19942;-60
2021/06/06 05:17:13;;;;;;;;;;;;;;;14.11;81.92;96422.09;3605476;39;19943;-60
2021/06/06 05:19:50;;;;;;;;;;;;;;;14.27;80.11;96425.53;3614889;39;19935;-60
2021/06/06 05:22:19;;;;;;;;;;;;;;;14.34;80.80;96425.25;3603515;39;19944;-59
2021/06/06 05:24:49;;;;;;;;;;;;;;;14.42;79.39;96428.16;3601218;39;19950;-59
2021/06/06 05:27:19;;;;;;;;;;;;;;;14.49;78.68;96421.78;3605702;39;19951;-64
2021/06/06 05:29:47;;;;;;;;;;;;;;;14.52;78.14;96430.03;3607324;39;19944;-60
2021/06/06 05:32:14;;;;;;;;;;;;;;;14.59;77.95;96421.75;3605165;39;19939;-63
2021/06/06 05:34:43;;;;;;;;;;;;;;;14.65;77.25;96426.00;3608627;39;19948;-62
2021/06/06 05:37:13;;;;;;;;;;;;;;;14.71;78.71;96440.88;3614019;39;19943;-60
2021/06/06 05:39:41;;;;;;;;;;;;;;;14.82;77.58;96441.66;3618349;39;20308;-60
2021/06/06 05:42:09;;;;;;;;;;;;;;;14.88;77.69;96442.44;3605642;39;19943;-60
2021/06/06 05:44:36;;;;;;;;;;;;;;;15.01;76.91;96438.44;3602195;39;19943;-60
2021/06/06 05:47:05;;;;;;;;;;;;;;;15.19;75.57;96445.00;3607796;39;20125;-60
2021/06/06 05:49:33;;;;;;;;;;;;;;;15.32;74.87;96441.72;3607849;39;19946;-61
2021/06/06 05:52:12;;;;;;;;;;;;;;;15.35;74.96;96446.50;3605092;39;20396;-60
2021/06/06 05:54:40;;;;;;;;;;;;;;;15.42;75.24;96442.78;3608475;39;19943;-60
2021/06/06 05:57:08;;;;;;;;;;;;;;;15.53;73.87;96441.66;3605865;39;20223;-60
2021/06/06 05:59:35;;;;;;;;;;;;;;;15.53;73.78;96437.13;3597335;39;19939;-60
2021/06/06 06:02:03;;;;;;;;;;;;;;;15.60;73.88;96439.47;3604858;39;19954;-60
2021/06/06 06:04:31;;;;;;;;;;;;;;;15.62;72.92;96437.34;3605130;39;20282;-60
2021/06/06 06:06:58;;;;;;;;;;;;;;;15.69;72.90;96443.13;3608675;39;19950;-60
2021/06/06 06:09:26;;;;;;;;;;;;;;;15.77;72.07;96439.09;3603247;39;19943;-60
2021/06/06 06:11:53;;;;;;;;;;;;;;;15.77;71.62;96435.66;3606624;39;20349;-60
2021/06/06 06:14:21;;;;;;;;;;;;;;;15.78;71.60;96442.56;3604645;39;19940;-59
2021/06/06 06:16:48;;;;;;;;;;;;;;;15.82;71.06;96443.59;3605450;39;19943;-60
2021/06/06 06:19:16;;;;;;;;;;;;;;;15.88;70.71;96439.09;3600415;39;20284;-60
2021/06/06 06:21:44;;;;;;;;;;;;;;;15.95;70.50;96445.66;3605879;39;19943;-60
2021/06/06 06:24:11;;;;;;;;;;;;;;;16.05;69.85;96444.03;3606839;39;19946;-61
2021/06/06 06:26:40;;;;;;;;;;;;;;;16.10;70.08;96447.44;3606341;39;19947;-61
2021/06/06 06:29:14;;;;;;;;;;;;;;;16.14;69.95;96445.00;3614265;39;20267;-61
2021/06/06 06:31:53;;;;;;;;;;;;;;;16.26;69.56;96447.28;3605022;39;19988;-61
2021/06/06 06:34:29;;;;;;;;;;;;;;;16.39;69.91;96454.63;3603126;39;20216;-61
2021/06/06 06:36:58;;;;;;;;;;;;;;;16.54;69.42;96455.56;3608408;39;20323;-61
2021/06/06 06:39:25;;;;;;;;;;;;;;;16.64;67.52;96454.69;3597719;39;19958;-62
2021/06/06 06:41:53;;;;;;;;;;;;;;;16.50;67.12;96466.00;3602181;39;19950;-62
2021/06/06 06:44:21;;;;;;;;;;;;;;;16.55;67.49;96454.50;3606366;39;20293;-65
2021/06/06 06:46:50;;;;;;;;;;;;;;;16.70;66.52;96454.38;3605896;39;19945;-61
2021/06/06 06:49:18;;;;;;;;;;;;;;;16.88;66.60;96452.84;3604599;39;19943;-62
2021/06/06 06:51:46;;;;;;;;;;;;;;;17.01;65.61;96447.94;3604298;39;19957;-62
2021/06/06 06:54:14;;;;;;;;;;;;;;;17.13;66.42;96455.53;3605718;39;20012;-62
2021/06/06 06:56:41;;;;;;;;;;;;;;;17.18;64.93;96452.81;3607206;39;19943;-62
2021/06/06 06:59:09;;;;;;;;;;;;;;;17.23;65.00;96451.97;3611202;39;19947;-59
2021/06/06 07:01:36;;;;;;;;;;;;;;;17.32;64.64;96460.91;3609110;39;20492;-61
2021/06/06 07:04:04;;;;;;;;;;;;;;;17.30;63.71;96457.72;3618734;39;19958;-60
2021/06/06 07:06:32;;;;;;;;;;;;;;;17.33;63.70;96455.31;3619201;39;19949;-61
2021/06/06 07:09:00;;;;;;;;;;;;;;;17.37;63.82;96455.53;3619063;39;20411;-61
2021/06/06 07:11:28;;;;;;;;;;;;;;;17.45;63.91;96454.09;3613924;39;19943;-61
2021/06/06 07:13:55;;;;;;;;;;;;;;;17.45;63.85;96452.22;3610063;39;20302;-61
2021/06/06 07:16:23;;;;;;;;;;;;;;;17.51;62.91;96445.75;3608768;39;19945;-61
2021/06/06 07:18:50;;;;;;;;;;;;;;;17.58;62.26;96449.91;3617497;39;20200;-62
2021/06/06 07:21:21;;;;;;;;;;;;;;;17.77;63.03;96442.72;3596563;39;19961;-61
2021/06/06 07:23:49;;;;;;;;;;;;;;;18.04;62.30;96449.28;3609332;39;20272;-60
2021/06/06 07:26:23;;;;;;;;;;;;;;;18.15;62.22;96449.16;3617397;39;19943;-61
2021/06/06 07:28:52;;;;;;;;;;;;;;;18.32;60.13;96449.38;3617574;39;20037;-61
2021/06/06 07:31:20;;;;;;;;;;;;;;;18.37;60.03;96451.16;3600003;39;20203;-62
2021/06/06 07:33:51;;;;;;;;;;;;;;;18.43;60.08;96450.78;3622895;39;19943;-62
2021/06/06 07:36:19;;;;;;;;;;;;;;;18.65;59.53;96446.69;3601502;39;19947;-61
2021/06/06 07:38:48;;;;;;;;;;;;;;;18.82;58.52;96448.00;3615664;39;19943;-61
2021/06/06 07:41:17;;;;;;;;;;;;;;;18.95;57.46;96438.44;3617138;39;19943;-62
2021/06/06 07:43:45;;;;;;;;;;;;;;;19.23;58.25;96441.09;3619985;39;19935;-62
2021/06/06 07:46:14;;;;;;;;;;;;;;;19.52;55.95;96440.75;3619559;39;19939;-62
2021/06/06 07:48:43;;;;;;;;;;;;;;;19.60;56.40;96436.56;3607349;39;19935;-62
2021/06/06 07:51:10;;;;;;;;;;;;;;;19.63;55.37;96441.34;3596873;39;20288;-62
2021/06/06 07:53:38;;;;;;;;;;;;;;;19.70;55.50;96433.66;3612279;39;19939;-62
2021/06/06 07:56:05;;;;;;;;;;;;;;;19.87;56.38;96430.41;3618629;39;19943;-63
2021/06/06 07:58:34;;;;;;;;;;;;;;;20.08;54.97;96425.34;3615901;39;19951;-62
2021/06/06 08:01:03;;;;;;;;;;;;;;;19.94;55.42;96416.56;3619185;39;19931;-62
2021/06/06 08:03:31;;;;;;;;;;;;;;;19.77;54.85;96427.91;3609710;39;19963;-62
2021/06/06 08:06:00;;;;;;;;;;;;;;;19.77;56.41;96430.56;3605823;39;19942;-61
2021/06/06 08:08:28;;;;;;;;;;;;;;;19.90;57.11;96429.78;3617277;39;19949;-62
2021/06/06 08:10:56;;;;;;;;;;;;;;;19.85;55.60;96429.06;3607611;39;19940;-62
2021/06/06 08:13:25;;;;;;;;;;;;;;;19.73;55.95;96421.59;3611744;39;20227;-63
2021/06/06 08:15:53;;;;;;;;;;;;;;;19.54;55.68;96422.50;3610715;39;19947;-62
2021/06/06 08:18:24;;;;;;;;;;;;;;;19.48;56.47;96431.75;3601695;39;19947;-63
2021/06/06 08:20:55;;;;;;;;;;;;;;;19.34;56.24;96426.41;3621097;39;19947;-62
2021/06/06 08:23:23;;;;;;;;;;;;;;;19.20;57.72;96419.19;3601991;39;19935;-61
2021/06/06 08:25:51;;;;;;;;;;;;;;;19.26;56.92;96425.22;3619183;39;20355;-62
2021/06/06 08:28:20;;;;;;;;;;;;;;;19.41;57.18;96426.00;3620521;39;19950;-63
2021/06/06 08:30:52;;;;;;;;;;;;;;;19.44;58.10;96418.19;3609893;39;19953;-62
2021/06/06 08:33:22;;;;;;;;;;;;;;;19.48;57.53;96415.72;3610260;39;19942;-61
2021/06/06 08:35:53;;;;;;;;;;;;;;;19.58;56.49;96414.66;3620266;39;19950;-61
2021/06/06 08:38:21;;;;;;;;;;;;;;;19.67;56.96;96408.31;3608998;39;19943;-61
2021/06/06 08:40:52;;;;;;;;;;;;;;;19.64;56.51;96416.94;3617211;39;19962;-61
2021/06/06 08:43:21;;;;;;;;;;;;;;;19.61;57.08;96414.06;3597126;39;19975;-61
2021/06/06 08:45:57;;;;;;;;;;;;;;;19.77;57.98;96414.50;3614287;39;20207;-61
2021/06/06 08:48:28;;;;;;;;;;;;;;;19.89;57.35;96408.66;3610276;39;19947;-62
2021/06/06 08:50:59;;;;;;;;;;;;;;;19.90;54.89;96408.34;3621121;39;20071;-62
2021/06/06 08:53:36;;;;;;;;;;;;;;;20.00;56.89;96410.00;3620679;39;19935;-61
2021/06/06 08:56:20;;;;;;;;;;;;;;;20.04;55.13;96388.75;3618317;39;20318;-62
2021/06/06 08:59:06;;;;;;;;;;;;;;;19.99;55.59;96399.59;3619280;39;20177;-62
2021/06/06 09:01:40;;;;;;;;;;;;;;;20.12;55.31;96398.75;3600166;39;19943;-62
2021/06/06 09:04:12;;;;;;;;;;;;;;;20.23;54.18;96396.59;3617166;39;20066;-61
2021/06/06 09:06:46;;;;;;;;;;;;;;;20.23;53.89;96389.38;3607685;39;20284;-62
2021/06/06 09:09:20;;;;;;;;;;;;;;;20.23;54.50;96389.38;3609084;39;19943;-62
2021/06/06 09:11:48;;;;;;;;;;;;;;;20.34;54.37;96389.09;3600254;39;19943;-62
2021/06/06 09:14:16;;;;;;;;;;;;;;;20.31;54.92;96387.81;3618853;39;19943;-62
2021/06/06 09:16:50;;;;;;;;;;;;;;;20.38;53.24;96387.38;3596826;39;19975;-61
2021/06/06 09:19:18;;;;;;;;;;;;;;;20.43;52.87;96384.56;3609819;39;19943;-62
2021/06/06 09:21:48;;;;;;;;;;;;;;;20.47;51.66;96382.88;3608298;39;19943;-61
2021/06/06 09:24:21;;;;;;;;;;;;;;;20.52;51.37;96384.63;3608613;39;19942;-62
2021/06/06 09:26:49;;;;;;;;;;;;;;;20.50;51.30;96378.78;3605816;39;19945;-61
2021/06/06 09:29:16;;;;;;;;;;;;;;;20.58;51.53;96375.34;3607720;39;19943;-62
2021/06/06 09:31:44;;;;;;;;;;;;;;;20.62;51.33;96362.91;3618159;39;19943;-61
2021/06/06 09:34:17;;;;;;;;;;;;;;;20.72;51.08;96369.88;3617590;39;19943;-61
2021/06/06 09:36:59;;;;;;;;;;;;;;;20.97;51.51;96368.41;3602414;39;19939;-62
2021/06/06 09:39:29;;;;;;;;;;;;;;;21.01;50.57;96360.53;3611996;39;19947;-62
2021/06/06 09:41:58;;;;;;;;;;;;;;;21.08;49.93;96358.19;3616607;39;19938;-61
2021/06/06 09:44:28;;;;;;;;;;;;;;;21.25;50.70;96364.66;3601579;39;19945;-60
2021/06/06 09:47:10;;;;;;;;;;;;;;;21.46;50.33;96362.97;3588697;39;19935;-60
2021/06/06 09:49:48;;;;;;;;;;;;;;;21.69;49.68;96367.41;3609423;39;19943;-61
2021/06/06 09:52:29;;;;;;;;;;;;;;;21.83;48.08;96359.19;3618869;39;19947;-61
2021/06/06 09:54:57;;;;;;;;;;;;;;;21.87;47.99;96362.81;3619677;39;20383;-60
2021/06/06 09:57:28;;;;;;;;;;;;;;;21.96;48.31;96355.53;3616692;39;20254;-60
2021/06/06 10:00:26;;;;;;;;;;;;;;;22.04;47.46;96357.41;3617390;39;19939;-60
2021/06/06 10:02:58;;;;;;;;;;;;;;;22.15;47.93;96349.00;3605222;39;19943;-61
2021/06/06 10:05:29;;;;;;;;;;;;;;;22.35;47.93;96348.31;3614773;39;20361;-60
2021/06/06 10:07:58;;;;;;;;;;;;;;;22.44;47.34;96347.53;3619633;39;19953;-61
2021/06/06 10:10:29;;;;;;;;;;;;;;;22.51;46.24;96343.25;3610334;39;20015;-63
2021/06/06 10:13:01;;;;;;;;;;;;;;;22.66;46.50;96335.72;3616788;39;19949;-60
2021/06/06 10:15:42;;;;;;;;;;;;;;;22.76;48.03;96343.44;3618383;39;19947;-60
2021/06/06 10:18:10;;;;;;;;;;;;;;;22.90;46.27;96337.81;3612822;39;19947;-61
2021/06/06 10:20:40;;;;;;;;;;;;;;;22.79;45.07;96339.31;3619577;39;20266;-64
2021/06/06 10:23:11;;;;;;;;;;;;;;;22.52;45.11;96325.19;3609707;39;19947;-60
2021/06/06 10:25:39;;;;;;;;;;;;;;;22.66;46.34;96328.47;3613953;39;19939;-61
2021/06/06 10:28:08;;;;;;;;;;;;;;;22.81;47.61;96334.41;3608765;39;19936;-61
2021/06/06 10:30:48;;;;;;;;;;;;;;;22.88;46.20;96329.28;3620359;39;19947;-62
2021/06/06 10:33:15;;;;;;;;;;;;;;;23.09;44.69;96328.53;3619979;39;19942;-61
2021/06/06 10:35:43;;;;;;;;;;;;;;;23.08;45.09;96333.13;3610113;39;20738;-60
2021/06/06 10:38:12;;;;;;;;;;;;;;;23.25;44.78;96320.72;3618867;39;19943;-60
2021/06/06 10:40:53;;;;;;;;;;;;;;;23.39;43.16;96320.44;3618304;39;19949;-61
2021/06/06 10:43:53;;;;;;;;;;;;;;;23.34;43.14;96319.50;3608910;39;20243;-61
2021/06/06 10:46:24;;;;;;;;;;;;;;;23.57;42.28;96319.16;3595183;39;19958;-61
2021/06/06 10:48:55;;;;;;;;;;;;;;;23.59;41.41;96316.94;3608599;39;19965;-61
2021/06/06 10:51:38;;;;;;;;;;;;;;;23.76;40.02;96315.97;3608098;39;19949;-61
2021/06/06 10:54:21;;;;;;;;;;;;;;;23.83;38.41;96307.34;3609497;39;19942;-61
2021/06/06 10:56:54;;;;;;;;;;;;;;;23.99;36.89;96312.16;3618657;39;19949;-61
2021/06/06 10:59:40;;;;;;;;;;;;;;;23.98;33.93;96316.75;3611074;39;20264;-61
2021/06/06 11:02:10;;;;;;;;;;;;;;;24.09;34.19;96309.81;3620206;39;20217;-61
2021/06/06 11:04:49;;;;;;;;;;;;;;;24.32;33.74;96297.81;3602325;39;20191;-61
2021/06/06 11:07:19;;;;;;;;;;;;;;;24.39;34.40;96298.06;3620552;39;19947;-63
2021/06/06 11:10:08;;;;;;;;;;;;;;;24.49;35.79;96294.91;3613633;39;19965;-62
2021/06/06 11:12:37;;;;;;;;;;;;;;;24.60;35.45;96297.16;3599271;39;19949;-62
2021/06/06 11:15:25;;;;;;;;;;;;;;;24.73;36.03;96298.00;3610471;39;20115;-61
2021/06/06 11:17:53;;;;;;;;;;;;;;;24.54;34.88;96297.41;3589924;39;19943;-62
2021/06/06 11:20:23;;;;;;;;;;;;;;;24.30;34.68;96287.38;3601642;39;22368;-62
2021/06/06 11:22:51;;;;;;;;;;;;;;;24.28;35.71;96286.16;3620034;39;19965;-62
2021/06/06 11:25:40;;;;;;;;;;;;;;;24.27;35.53;96285.34;3610972;39;19948;-61
2021/06/06 11:28:23;;;;;;;;;;;;;;;24.31;34.62;96288.97;3606854;39;19935;-68
2021/06/06 11:30:52;;;;;;;;;;;;;;;24.15;33.15;96286.16;3610536;39;19944;-61
2021/06/06 11:33:31;;;;;;;;;;;;;;;24.18;34.25;96277.41;3619919;39;19939;-61
2021/06/06 11:35:59;;;;;;;;;;;;;;;24.40;34.55;96283.47;3609578;39;20251;-61
2021/06/06 11:38:27;;;;;;;;;;;;;;;24.48;33.91;96277.16;3601588;39;19965;-61
2021/06/06 11:41:06;;;;;;;;;;;;;;;24.52;32.70;96274.56;3605789;39;19932;-61
2021/06/06 11:43:34;;;;;;;;;;;;;;;24.57;33.57;96275.13;3605080;39;20293;-61
2021/06/06 11:46:14;;;;;;;;;;;;;;;24.68;33.12;96274.66;3610692;39;20525;-61
2021/06/06 11:48:53;;;;;;;;;;;;;;;24.80;31.03;96266.59;3620505;39;19966;-61
2021/06/06 11:51:26;;;;;;;;;;;;;;;25.08;32.20;96263.16;3610687;39;19943;-61
2021/06/06 11:53:54;;;;;;;;;;;;;;;25.07;32.90;96264.28;3619849;39;20304;-61
2021/06/06 11:56:21;;;;;;;;;;;;;;;25.09;32.69;96256.66;3612626;39;19945;-61
2021/06/06 11:58:53;;;;;;;;;;;;;;;25.14;32.67;96253.72;3618952;39;19941;-62
2021/06/06 12:01:22;;;;;;;;;;;;;;;25.32;33.85;96248.00;3586966;39;19939;-63
2021/06/06 12:03:51;;;;;;;;;;;;;;;25.51;34.50;96249.34;3609575;39;20285;-62
2021/06/06 12:06:28;;;;;;;;;;;;;;;25.62;33.01;96255.81;3607948;39;19949;-62
2021/06/06 12:08:56;;;;;;;;;;;;;;;25.76;32.64;96239.16;3607269;39;19951;-62
2021/06/06 12:11:28;;;;;;;;;;;;;;;25.85;32.47;96239.78;3609257;39;19942;-61
2021/06/06 12:14:08;;;;;;;;;;;;;;;26.00;32.93;96238.25;3608730;39;19944;-61
2021/06/06 12:16:36;;;;;;;;;;;;;;;26.19;32.93;96239.47;3606734;39;19947;-60
2021/06/06 12:19:07;;;;;;;;;;;;;;;26.32;31.21;96232.84;3602535;39;19965;-60
2021/06/06 12:21:38;;;;;;;;;;;;;;;26.23;31.63;96230.31;3607792;39;19945;-61
2021/06/06 12:24:26;;;;;;;;;;;;;;;25.69;32.80;96233.59;3609313;39;19936;-60
2021/06/06 12:27:00;;;;;;;;;;;;;;;25.63;33.48;96238.47;3609946;39;19948;-61
2021/06/06 12:29:29;;;;;;;;;;;;;;;25.67;33.30;96241.25;3607393;39;19947;-61
2021/06/06 12:32:05;;;;;;;;;;;;;;;25.43;32.01;96232.16;3608541;39;19943;-61
2021/06/06 12:34:33;;;;;;;;;;;;;;;24.90;33.64;96237.59;3609016;39;20641;-60
2021/06/06 12:37:04;;;;;;;;;;;;;;;24.69;32.97;96236.63;3605901;39;19948;-60
2021/06/06 12:39:32;;;;;;;;;;;;;;;24.61;33.52;96231.31;3603956;39;19940;-60
2021/06/06 12:42:01;;;;;;;;;;;;;;;24.65;33.46;96227.59;3606932;39;20042;-62
2021/06/06 12:44:30;;;;;;;;;;;;;;;24.83;34.08;96225.44;3608041;39;19944;-61
2021/06/06 12:46:59;;;;;;;;;;;;;;;24.89;34.14;96226.00;3610430;39;20300;-60
2021/06/06 12:49:33;;;;;;;;;;;;;;;24.95;33.51;96221.16;3610329;39;20411;-61
2021/06/06 12:52:24;;;;;;;;;;;;;;;25.03;32.58;96221.00;3598406;39;19943;-60
2021/06/06 12:54:52;;;;;;;;;;;;;;;25.23;31.80;96215.75;3601703;39;19947;-54
2021/06/06 12:57:30;;;;;;;;;;;;;;;25.25;30.27;96218.91;3607403;39;19939;-54
2021/06/06 13:00:05;;;;;;;;;;;;;;;25.14;30.90;96215.94;3601960;39;20412;-55
2021/06/06 13:02:39;;;;;;;;;;;;;;;25.15;31.48;96217.50;3603750;39;20634;-54
2021/06/06 13:05:14;;;;;;;;;;;;;;;25.32;32.39;96215.63;3608464;39;19942;-57
2021/06/06 13:07:41;;;;;;;;;;;;;;;25.53;31.21;96215.44;3609230;39;19940;-55
2021/06/06 13:10:24;;;;;;;;;;;;;;;25.71;31.55;96215.91;3605691;39;20414;-58
2021/06/06 13:12:51;;;;;;;;;;;;;;;25.94;31.56;96212.59;3617149;39;19954;-54